createdAt,value
2019-06-15T00:01:52.939Z,75.41
2019-06-15T00:04:21.539Z,75.68
2019-06-15T00:06:50.492Z,76.55
2019-06-15T00:09:19.135Z,75.83
2019-06-15T00:11:47.707Z,76.70
2019-06-15T00:14:16.405Z,77.51
2019-06-15T00:16:45.033Z,77.39
2019-06-15T00:19:13.768Z,77.79
2019-06-15T00:21:42.410Z,78.32
2019-06-15T00:24:11.081Z,79.15
2019-06-15T00:26:39.668Z,79.18
2019-06-15T00:29:08.374Z,80.78
2019-06-15T00:31:37.018Z,80.59
2019-06-15T00:34:05.593Z,80.56
2019-06-15T00:36:34.171Z,80.72
2019-06-15T00:39:03.150Z,81.24
2019-06-15T00:41:31.819Z,81.74
2019-06-15T00:44:00.525Z,82.08
2019-06-15T00:46:29.241Z,82.18
2019-06-15T00:48:57.781Z,82.50
2019-06-15T00:51:26.354Z,83.54
2019-06-15T00:53:54.994Z,84.43
2019-06-15T00:56:23.543Z,84.67
2019-06-15T00:58:53.169Z,85.54
2019-06-15T01:01:21.737Z,86.21
2019-06-15T01:03:52.044Z,86.83
2019-06-15T01:06:20.585Z,86.02
2019-06-15T01:08:49.189Z,86.73
2019-06-15T01:11:17.818Z,87.57
2019-06-15T01:13:46.512Z,90.20
2019-06-15T01:16:15.080Z,88.63
2019-06-15T01:18:43.777Z,89.08
2019-06-15T01:21:12.339Z,89.72
2019-06-15T01:23:40.942Z,89.46
2019-06-15T01:26:09.507Z,89.39
2019-06-15T01:28:38.114Z,89.53
2019-06-15T01:31:06.737Z,90.55
2019-06-15T01:33:35.638Z,90.52
2019-06-15T01:36:04.765Z,90.91
2019-06-15T01:38:33.391Z,91.35
2019-06-15T01:41:02.122Z,91.66
2019-06-15T01:43:30.829Z,91.19
2019-06-15T01:45:59.462Z,90.73
2019-06-15T01:48:28.149Z,91.43
2019-06-15T01:50:56.709Z,91.76
2019-06-15T01:53:25.393Z,92.79
2019-06-15T01:55:54.012Z,92.36
2019-06-15T01:58:22.652Z,93.13
2019-06-15T02:00:51.268Z,93.24
2019-06-15T02:03:19.923Z,93.12
2019-06-15T02:05:48.542Z,94.51
2019-06-15T02:08:17.145Z,94.06
2019-06-15T02:10:45.700Z,94.61
2019-06-15T02:13:14.336Z,94.81
2019-06-15T02:15:42.952Z,95.06
2019-06-15T02:18:11.673Z,94.60
2019-06-15T02:20:40.223Z,94.28
2019-06-15T02:23:08.900Z,94.92
2019-06-15T02:25:37.527Z,96.21
2019-06-15T02:28:06.252Z,95.84
2019-06-15T02:30:35.392Z,96.64
2019-06-15T02:33:04.651Z,96.83
2019-06-15T02:35:33.286Z,97.34
2019-06-15T02:38:02.009Z,96.94
2019-06-15T02:40:30.623Z,98.18
2019-06-15T02:42:59.241Z,99.05
2019-06-15T02:45:27.868Z,99.96
2019-06-15T02:47:56.605Z,99.62
2019-06-15T02:50:25.667Z,100.00
2019-06-15T02:52:54.379Z,99.85
2019-06-15T02:55:23.002Z,100.00
2019-06-15T02:57:51.603Z,100.00
2019-06-15T03:00:29.007Z,100.00
2019-06-15T03:02:57.732Z,100.00
2019-06-15T03:05:26.472Z,100.00
2019-06-15T03:07:55.104Z,100.00
2019-06-15T03:10:23.726Z,100.00
2019-06-15T03:12:52.780Z,100.00
2019-06-15T03:15:21.408Z,100.00
2019-06-15T03:17:50.026Z,100.00
2019-06-15T03:20:19.655Z,100.00
2019-06-15T03:22:48.249Z,100.00
2019-06-15T03:25:17.482Z,100.00
2019-06-15T03:27:46.184Z,100.00
2019-06-15T03:30:14.835Z,100.00
2019-06-15T03:32:43.434Z,100.00
2019-06-15T03:35:12.904Z,100.00
2019-06-15T03:37:41.566Z,100.00
2019-06-15T03:40:10.512Z,100.00
2019-06-15T03:42:39.207Z,100.00
2019-06-15T03:45:08.850Z,100.00
2019-06-15T03:47:37.592Z,100.00
2019-06-15T03:50:07.716Z,100.00
2019-06-15T03:52:36.307Z,100.00
2019-06-15T03:55:06.571Z,100.00
2019-06-15T03:57:35.286Z,100.00
2019-06-15T04:00:04.689Z,100.00
2019-06-15T04:02:33.389Z,100.00
2019-06-15T04:05:02.050Z,100.00
2019-06-15T04:07:30.685Z,100.00
2019-06-15T04:09:59.242Z,100.00
2019-06-15T04:12:27.855Z,100.00
2019-06-15T04:14:56.485Z,100.00
2019-06-15T04:17:25.109Z,100.00
2019-06-15T04:19:53.675Z,100.00
2019-06-15T04:22:22.463Z,100.00
2019-06-15T04:24:50.962Z,100.00
2019-06-15T04:27:19.631Z,100.00
2019-06-15T04:29:48.221Z,100.00
2019-06-15T04:32:16.856Z,100.00
2019-06-15T04:34:45.502Z,100.00
2019-06-15T04:37:14.058Z,100.00
2019-06-15T04:39:42.702Z,100.00
2019-06-15T04:42:11.400Z,100.00
2019-06-15T04:44:40.016Z,100.00
2019-06-15T04:47:08.596Z,100.00
2019-06-15T04:49:37.211Z,100.00
2019-06-15T04:52:05.848Z,100.00
2019-06-15T04:54:34.500Z,100.00
2019-06-15T04:57:03.092Z,100.00
2019-06-15T04:59:31.805Z,100.00
2019-06-15T05:02:00.729Z,100.00
2019-06-15T05:04:29.444Z,100.00
2019-06-15T05:06:57.991Z,100.00
2019-06-15T05:09:26.626Z,100.00
2019-06-15T05:11:55.198Z,100.00
2019-06-15T05:14:23.743Z,100.00
2019-06-15T05:16:52.323Z,100.00
2019-06-15T05:19:21.010Z,100.00
2019-06-15T05:21:49.593Z,100.00
2019-06-15T05:24:18.233Z,100.00
2019-06-15T05:26:46.794Z,100.00
2019-06-15T05:29:15.427Z,100.00
2019-06-15T05:31:44.020Z,100.00
2019-06-15T05:34:12.613Z,100.00
2019-06-15T05:36:41.230Z,100.00
2019-06-15T05:39:09.926Z,100.00
2019-06-15T05:41:38.511Z,100.00
2019-06-15T05:44:07.204Z,100.00
2019-06-15T05:46:35.756Z,100.00
2019-06-15T05:49:04.453Z,100.00
2019-06-15T05:51:33.016Z,100.00
2019-06-15T05:54:01.681Z,100.00
2019-06-15T05:56:33.408Z,100.00
2019-06-15T05:59:00.699Z,100.00
2019-06-15T06:01:29.278Z,100.00
2019-06-15T06:03:57.967Z,100.00
2019-06-15T06:06:26.598Z,100.00
2019-06-15T06:08:55.239Z,100.00
2019-06-15T06:11:23.868Z,100.00
2019-06-15T06:13:52.492Z,100.00
2019-06-15T06:16:21.047Z,100.00
2019-06-15T06:18:49.701Z,100.00
2019-06-15T06:21:18.267Z,100.00
2019-06-15T06:23:46.867Z,100.00
2019-06-15T06:26:15.583Z,100.00
2019-06-15T06:28:56.531Z,100.00
2019-06-15T06:31:14.446Z,100.00
2019-06-15T06:33:43.098Z,100.00
2019-06-15T06:36:11.727Z,100.00
2019-06-15T06:38:40.348Z,100.00
2019-06-15T06:41:08.977Z,100.00
2019-06-15T06:43:37.659Z,100.00
2019-06-15T06:46:06.220Z,100.00
2019-06-15T06:48:34.902Z,100.00
2019-06-15T06:51:03.463Z,100.00
2019-06-15T06:53:32.025Z,100.00
2019-06-15T06:56:00.699Z,100.00
2019-06-15T06:58:29.377Z,100.00
2019-06-15T07:00:58.012Z,100.00
2019-06-15T07:03:26.624Z,100.00
2019-06-15T07:05:55.202Z,100.00
2019-06-15T07:08:23.864Z,100.00
2019-06-15T07:10:52.551Z,100.00
2019-06-15T07:13:21.233Z,100.00
2019-06-15T07:15:49.800Z,100.00
2019-06-15T07:18:18.453Z,100.00
2019-06-15T07:20:47.091Z,100.00
2019-06-15T07:23:15.750Z,100.00
2019-06-15T07:25:44.377Z,100.00
2019-06-15T07:28:13.093Z,100.00
2019-06-15T07:30:43.083Z,100.00
2019-06-15T07:33:11.805Z,100.00
2019-06-15T07:35:40.359Z,100.00
2019-06-15T07:38:08.992Z,100.00
2019-06-15T07:40:37.631Z,100.00
2019-06-15T07:43:07.180Z,100.00
2019-06-15T07:45:35.761Z,100.00
2019-06-15T07:48:04.430Z,100.00
2019-06-15T07:50:33.088Z,100.00
2019-06-15T07:53:01.693Z,100.00
2019-06-15T07:55:30.293Z,100.00
2019-06-15T07:57:58.906Z,100.00
2019-06-15T08:00:27.486Z,100.00
2019-06-15T08:02:56.184Z,100.00
2019-06-15T08:05:24.757Z,100.00
2019-06-15T08:07:53.443Z,100.00
2019-06-15T08:10:22.201Z,100.00
2019-06-15T08:12:50.855Z,100.00
2019-06-15T08:15:19.489Z,100.00
2019-06-15T08:17:48.130Z,100.00
2019-06-15T08:20:18.732Z,99.74
2019-06-15T08:22:47.444Z,99.04
2019-06-15T08:25:16.084Z,98.08
2019-06-15T08:27:47.816Z,97.01
2019-06-15T08:30:18.215Z,99.46
2019-06-15T08:32:46.870Z,96.78
2019-06-15T08:35:15.565Z,94.86
2019-06-15T08:37:44.291Z,93.84
2019-06-15T08:40:14.549Z,93.17
2019-06-15T08:42:43.245Z,90.89
2019-06-15T08:45:12.089Z,89.82
2019-06-15T08:47:40.783Z,93.39
2019-06-15T08:50:09.625Z,90.78
2019-06-15T08:52:38.402Z,93.20
2019-06-15T08:55:07.056Z,89.83
2019-06-15T08:57:35.690Z,89.53
2019-06-15T09:00:06.382Z,89.88
2019-06-15T09:02:35.034Z,91.17
2019-06-15T09:05:07.374Z,90.07
2019-06-15T09:07:36.100Z,89.43
2019-06-15T09:10:07.128Z,89.15
2019-06-15T09:12:35.892Z,90.66
2019-06-15T09:15:09.420Z,89.67
2019-06-15T09:17:38.027Z,88.70
2019-06-15T09:20:10.561Z,89.47
2019-06-15T09:22:39.149Z,88.65
2019-06-15T09:25:08.227Z,88.99
2019-06-15T09:27:36.871Z,90.20
2019-06-15T09:30:07.051Z,87.32
2019-06-15T09:32:35.898Z,88.07
2019-06-15T09:35:06.740Z,87.52
2019-06-15T09:37:35.378Z,86.51
2019-06-15T09:40:05.689Z,86.83
2019-06-15T09:42:34.720Z,85.39
2019-06-15T09:45:04.570Z,84.80
2019-06-15T09:47:33.194Z,85.34
2019-06-15T09:50:01.822Z,82.52
2019-06-15T09:52:30.490Z,83.23
2019-06-15T09:54:59.213Z,82.56
2019-06-15T09:57:27.894Z,84.94
2019-06-15T09:59:56.456Z,83.37
2019-06-15T10:02:25.143Z,79.92
2019-06-15T10:04:53.697Z,80.97
2019-06-15T10:07:22.420Z,82.22
2019-06-15T10:09:51.057Z,82.88
2019-06-15T10:12:20.041Z,83.48
2019-06-15T10:14:48.691Z,82.91
2019-06-15T10:17:17.476Z,85.26
2019-06-15T10:19:46.051Z,85.28
2019-06-15T10:22:14.641Z,85.04
2019-06-15T10:24:43.352Z,85.32
2019-06-15T10:27:12.070Z,86.56
2019-06-15T10:29:42.197Z,86.26
2019-06-15T10:32:11.285Z,84.93
2019-06-15T10:34:39.886Z,84.92
2019-06-15T10:37:08.458Z,85.08
2019-06-15T10:39:37.078Z,84.84
2019-06-15T10:42:05.745Z,85.39
2019-06-15T10:44:34.935Z,85.29
2019-06-15T10:47:03.586Z,86.18
2019-06-15T10:49:32.249Z,85.49
2019-06-15T10:52:00.849Z,85.99
2019-06-15T10:54:29.419Z,87.56
2019-06-15T10:56:57.999Z,88.25
2019-06-15T10:59:26.628Z,83.65
2019-06-15T11:01:55.263Z,84.35
2019-06-15T11:04:23.955Z,85.12
2019-06-15T11:06:52.616Z,82.17
2019-06-15T11:09:21.228Z,83.99
2019-06-15T11:11:49.780Z,81.62
2019-06-15T11:14:18.462Z,80.81
2019-06-15T11:16:47.477Z,81.34
2019-06-15T11:19:16.080Z,81.29
2019-06-15T11:21:44.657Z,83.41
2019-06-15T11:24:13.289Z,79.90
2019-06-15T11:26:42.212Z,78.28
2019-06-15T11:29:11.226Z,79.55
2019-06-15T11:31:39.814Z,75.05
2019-06-15T11:34:08.394Z,74.13
2019-06-15T11:36:37.031Z,73.10
2019-06-15T11:39:07.172Z,72.66
2019-06-15T11:41:35.822Z,71.08
2019-06-15T11:44:04.877Z,69.83
2019-06-15T11:46:33.633Z,67.12
2019-06-15T11:49:02.357Z,67.75
2019-06-15T11:51:31.037Z,67.80
2019-06-15T11:53:59.655Z,63.48
2019-06-15T11:56:28.348Z,61.93
2019-06-15T11:58:57.125Z,60.91
2019-06-15T12:01:25.821Z,60.68
2019-06-15T12:03:54.623Z,61.01
2019-06-15T12:06:23.166Z,63.17
2019-06-15T12:08:51.761Z,61.77
2019-06-15T12:11:20.385Z,67.50
2019-06-15T12:13:49.010Z,63.85
2019-06-15T12:16:17.565Z,64.41
2019-06-15T12:18:46.200Z,66.37
2019-06-15T12:21:14.806Z,63.65
2019-06-15T12:23:43.410Z,69.11
2019-06-15T12:26:11.965Z,65.68
2019-06-15T12:28:40.727Z,61.71
2019-06-15T12:31:09.289Z,61.80
2019-06-15T12:33:37.888Z,59.49
2019-06-15T12:36:18.315Z,56.50
2019-06-15T12:38:36.913Z,56.42
2019-06-15T12:41:05.538Z,57.33
2019-06-15T12:43:34.169Z,57.21
2019-06-15T12:46:02.920Z,58.91
2019-06-15T12:48:31.545Z,57.62
2019-06-15T12:51:00.189Z,58.23
2019-06-15T12:53:28.761Z,57.67
2019-06-15T12:55:57.376Z,59.25
2019-06-15T12:58:26.001Z,60.09
2019-06-15T13:01:02.836Z,58.03
2019-06-15T13:03:25.064Z,61.52
2019-06-15T13:05:53.689Z,60.03
2019-06-15T13:08:22.277Z,59.36
2019-06-15T13:10:50.883Z,59.29
2019-06-15T13:13:19.503Z,58.92
2019-06-15T13:15:49.163Z,60.60
2019-06-15T13:18:17.773Z,60.47
2019-06-15T13:20:46.311Z,60.56
2019-06-15T13:23:14.956Z,57.92
2019-06-15T13:25:43.523Z,56.41
2019-06-15T13:28:14.363Z,57.80
2019-06-15T13:30:42.969Z,52.11
2019-06-15T13:33:11.585Z,51.36
2019-06-15T13:35:40.193Z,52.23
2019-06-15T13:38:08.829Z,52.64
2019-06-15T13:40:37.453Z,52.43
2019-06-15T13:43:06.183Z,52.16
2019-06-15T13:45:34.732Z,53.28
2019-06-15T13:48:03.411Z,54.95
2019-06-15T13:50:31.964Z,53.37
2019-06-15T13:53:00.732Z,52.72
2019-06-15T13:55:29.462Z,53.22
2019-06-15T13:57:58.134Z,52.72
2019-06-15T14:00:26.778Z,51.94
2019-06-15T14:02:55.449Z,51.10
2019-06-15T14:05:24.100Z,52.75
2019-06-15T14:07:53.036Z,50.57
2019-06-15T14:10:21.673Z,51.54
2019-06-15T14:12:50.278Z,49.51
2019-06-15T14:15:18.909Z,51.38
2019-06-15T14:17:47.505Z,48.55
2019-06-15T14:20:16.181Z,49.31
2019-06-15T14:22:44.799Z,48.73
2019-06-15T14:25:13.504Z,50.06
2019-06-15T14:27:42.146Z,51.32
2019-06-15T14:30:11.300Z,50.51
2019-06-15T14:32:40.015Z,51.39
2019-06-15T14:35:08.997Z,51.26
2019-06-15T14:37:37.598Z,51.54
2019-06-15T14:40:06.747Z,50.71
2019-06-15T14:42:35.349Z,51.68
2019-06-15T14:45:04.779Z,51.74
2019-06-15T14:47:33.476Z,51.45
2019-06-15T14:50:02.126Z,52.16
2019-06-15T14:52:30.727Z,51.89
2019-06-15T14:54:59.301Z,52.04
2019-06-15T14:57:27.987Z,51.21
2019-06-15T15:00:03.985Z,49.72
2019-06-15T15:02:26.974Z,50.50
2019-06-15T15:04:56.478Z,52.40
2019-06-15T15:07:26.333Z,52.37
2019-06-15T15:09:56.637Z,56.27
2019-06-15T15:12:26.719Z,58.71
2019-06-15T15:14:56.464Z,60.90
2019-06-15T15:17:26.905Z,62.59
2019-06-15T15:19:57.391Z,63.22
2019-06-15T15:22:26.981Z,63.96
2019-06-15T15:24:56.571Z,64.35
2019-06-15T15:27:27.144Z,65.71
2019-06-15T15:29:56.991Z,64.79
2019-06-15T15:32:31.208Z,66.01
2019-06-15T15:34:56.221Z,65.74
2019-06-15T15:37:26.907Z,65.46
2019-06-15T15:39:56.481Z,64.81
2019-06-15T15:42:26.766Z,64.07
2019-06-15T15:44:56.555Z,64.95
2019-06-15T15:47:27.285Z,64.07
2019-06-15T15:49:57.597Z,63.88
2019-06-15T15:52:26.959Z,64.27
2019-06-15T15:54:56.580Z,64.63
2019-06-15T15:57:26.502Z,62.81
2019-06-15T15:59:56.354Z,62.20
2019-06-15T16:02:35.702Z,62.19
2019-06-15T16:04:57.545Z,63.67
2019-06-15T16:07:27.709Z,61.48
2019-06-15T16:09:56.065Z,62.35
2019-06-15T16:12:24.736Z,61.47
2019-06-15T16:14:53.273Z,61.55
2019-06-15T16:17:21.879Z,60.04
2019-06-15T16:19:50.360Z,61.92
2019-06-15T16:22:18.992Z,61.04
2019-06-15T16:24:48.063Z,61.82
2019-06-15T16:27:16.818Z,61.81
2019-06-15T16:29:46.977Z,62.23
2019-06-15T16:32:16.203Z,61.84
2019-06-15T16:34:47.283Z,62.68
2019-06-15T16:37:16.987Z,62.81
2019-06-15T16:39:46.772Z,63.96
2019-06-15T16:42:15.518Z,64.12
2019-06-15T16:44:44.086Z,64.39
2019-06-15T16:47:12.860Z,62.83
2019-06-15T16:49:41.420Z,62.44
2019-06-15T16:52:10.145Z,64.05
2019-06-15T16:54:38.773Z,64.46
2019-06-15T16:57:07.364Z,65.48
2019-06-15T16:59:36.502Z,64.42
2019-06-15T17:02:06.495Z,64.70
2019-06-15T17:04:36.378Z,62.66
2019-06-15T17:07:07.146Z,63.55
2019-06-15T17:09:36.272Z,63.89
2019-06-15T17:12:06.560Z,61.63
2019-06-15T17:14:36.425Z,61.90
2019-06-15T17:17:05.521Z,61.02
2019-06-15T17:19:36.247Z,61.54
2019-06-15T17:22:16.719Z,58.81
2019-06-15T17:24:36.950Z,58.94
2019-06-15T17:27:06.098Z,59.79
2019-06-15T17:29:34.950Z,60.95
2019-06-15T17:32:06.216Z,62.19
2019-06-15T17:34:36.227Z,61.38
2019-06-15T17:37:06.689Z,62.78
2019-06-15T17:39:37.054Z,62.10
2019-06-15T17:42:07.608Z,60.67
2019-06-15T17:44:36.971Z,60.97
2019-06-15T17:47:26.250Z,60.31
2019-06-15T17:50:14.078Z,60.80
2019-06-15T17:53:01.690Z,60.67
2019-06-15T17:55:49.380Z,60.83
2019-06-15T17:58:37.197Z,61.65
2019-06-15T18:01:26.494Z,62.05
2019-06-15T18:04:16.558Z,62.22
2019-06-15T18:07:03.583Z,62.86
2019-06-15T18:09:51.148Z,64.00
2019-06-15T18:12:38.698Z,63.39
2019-06-15T18:15:26.593Z,63.48
2019-06-15T18:18:16.651Z,63.74
2019-06-15T18:21:03.519Z,64.52
2019-06-15T18:23:51.087Z,65.52
2019-06-15T18:26:44.112Z,65.35
2019-06-15T18:29:32.012Z,64.84
2019-06-15T18:32:19.578Z,65.34
2019-06-15T18:35:07.644Z,66.65
2019-06-15T18:37:55.922Z,67.92
2019-06-15T18:40:43.480Z,67.39
2019-06-15T18:43:31.055Z,68.81
2019-06-15T18:46:18.678Z,68.27
2019-06-15T18:49:06.864Z,69.18
2019-06-15T18:51:56.569Z,69.00
2019-06-15T18:54:43.917Z,69.37
2019-06-15T18:57:31.477Z,69.57
2019-06-15T19:00:19.275Z,70.65
2019-06-15T19:03:07.130Z,70.49
2019-06-15T19:05:56.894Z,70.23
2019-06-15T19:08:46.632Z,69.66
2019-06-15T19:11:33.439Z,70.40
2019-06-15T19:14:21.017Z,70.75
2019-06-15T19:17:08.581Z,70.21
2019-06-15T19:19:57.218Z,71.08
2019-06-15T19:22:47.488Z,71.20
2019-06-15T19:25:36.348Z,72.17
2019-06-15T19:28:23.588Z,72.91
2019-06-15T19:31:11.211Z,73.60
2019-06-15T19:33:58.859Z,73.36
2019-06-15T19:36:46.918Z,73.66
2019-06-15T19:39:36.804Z,73.74
2019-06-15T19:42:25.919Z,75.04
2019-06-15T19:45:16.807Z,75.97
2019-06-15T19:48:03.139Z,76.27
2019-06-15T19:50:50.736Z,76.43
2019-06-15T19:53:38.320Z,76.75
2019-06-15T19:56:26.090Z,78.31
2019-06-15T19:59:13.672Z,77.81
2019-06-15T20:02:01.315Z,78.37
2019-06-15T20:05:00.415Z,78.50
2019-06-15T20:07:39.402Z,79.92
2019-06-15T20:10:28.532Z,80.34
2019-06-15T20:13:16.146Z,79.99
2019-06-15T20:16:07.814Z,80.93
2019-06-15T20:18:57.108Z,81.09
2019-06-15T20:21:46.314Z,81.68
2019-06-15T20:24:36.471Z,81.24
2019-06-15T20:27:23.575Z,81.93
2019-06-15T20:30:11.704Z,82.56
2019-06-15T20:33:00.187Z,83.73
2019-06-15T20:35:47.835Z,83.58
2019-06-15T20:38:36.348Z,83.72
2019-06-15T20:41:26.820Z,84.66
2019-06-15T20:44:13.419Z,85.20
2019-06-15T20:47:00.935Z,85.82
2019-06-15T20:49:48.928Z,86.57
2019-06-15T20:52:38.175Z,86.74
2019-06-15T20:55:26.540Z,88.21
2019-06-15T20:58:16.712Z,88.40
2019-06-15T21:01:03.701Z,88.84
2019-06-15T21:03:51.265Z,90.29
2019-06-15T21:06:41.613Z,91.90
2019-06-15T21:09:29.196Z,91.19
2019-06-15T21:12:16.847Z,90.21
2019-06-15T21:15:07.314Z,90.20
2019-06-15T21:17:57.148Z,89.48
2019-06-15T21:20:46.836Z,91.03
2019-06-15T21:23:33.507Z,90.90
2019-06-15T21:26:21.063Z,91.82
2019-06-15T21:29:08.680Z,92.44
2019-06-15T21:31:56.914Z,91.77
2019-06-15T21:34:48.774Z,93.26
2019-06-15T21:37:37.419Z,92.29
2019-06-15T21:40:27.327Z,93.79
2019-06-15T21:43:16.927Z,94.84
2019-06-15T21:46:06.367Z,94.07
2019-06-15T21:48:56.232Z,96.48
2019-06-15T21:51:43.042Z,97.01
2019-06-15T21:54:30.604Z,96.82
2019-06-15T21:57:18.130Z,95.05
2019-06-15T22:00:18.017Z,97.91
2019-06-15T22:03:10.231Z,95.33
2019-06-15T22:06:03.113Z,97.43
2019-06-15T22:08:48.647Z,95.90
2019-06-15T22:11:36.300Z,95.91
2019-06-15T22:14:23.829Z,95.57
2019-06-15T22:17:11.391Z,98.04
2019-06-15T22:19:59.024Z,96.17
2019-06-15T22:22:47.078Z,93.46
2019-06-15T22:25:36.082Z,90.20
2019-06-15T22:28:23.804Z,88.34
2019-06-15T22:31:11.454Z,88.04
2019-06-15T22:33:58.997Z,87.18
2019-06-15T22:36:47.942Z,86.89
2019-06-15T22:39:37.166Z,84.24
2019-06-15T22:42:24.960Z,83.12
2019-06-15T22:45:12.976Z,84.75
2019-06-15T22:48:00.510Z,84.61
2019-06-15T22:50:48.093Z,84.92
2019-06-15T22:53:36.444Z,84.90
2019-06-15T22:56:26.392Z,84.89
2019-06-15T22:59:13.491Z,84.76
2019-06-15T23:02:01.057Z,86.27
2019-06-15T23:04:48.627Z,84.86
2019-06-15T23:07:36.570Z,84.56
2019-06-15T23:10:24.287Z,85.44
2019-06-15T23:13:11.836Z,84.66
2019-06-15T23:15:59.394Z,84.83
2019-06-15T23:18:47.025Z,85.17
2019-06-15T23:21:37.251Z,85.95
2019-06-15T23:24:23.907Z,88.30
2019-06-15T23:27:11.428Z,86.42
2019-06-15T23:29:58.917Z,85.51
2019-06-15T23:32:47.036Z,85.90
2019-06-15T23:35:39.476Z,86.86
2019-06-15T23:38:27.125Z,86.84
2019-06-15T23:41:16.405Z,88.09
2019-06-15T23:44:04.056Z,90.18
2019-06-15T23:46:51.647Z,89.44
2019-06-15T23:49:39.191Z,88.87
2019-06-15T23:52:27.003Z,89.08
2019-06-15T23:55:15.572Z,88.30
2019-06-15T23:58:03.123Z,91.06
